sensor_id;sensor_type;location;lat;lon;timestamp;temperature;humidity
12015;DHT22;6066;48.138;16.402;2023-05-07T00:00:19;12.20;99.90
12015;DHT22;6066;48.138;16.402;2023-05-07T00:02:46;12.10;99.90
12015;DHT22;6066;48.138;16.402;2023-05-07T00:05:13;12.10;99.90
12015;DHT22;6066;48.138;16.402;2023-05-07T00:07:40;12.10;99.90
12015;DHT22;6066;48.138;16.402;2023-05-07T00:10:07;12.00;99.90
12015;DHT22;6066;48.138;16.402;2023-05-07T00:12:34;12.00;99.90
12015;DHT22;6066;48.138;16.402;2023-05-07T00:15:01;12.00;99.90
12015;DHT22;6066;48.138;16.402;2023-05-07T00:17:29;12.00;99.90
12015;DHT22;6066;48.138;16.402;2023-05-07T00:19:56;12.00;99.90
12015;DHT22;6066;48.138;16.402;2023-05-07T00:22:22;11.90;99.90
12015;DHT22;6066;48.138;16.402;2023-05-07T00:24:49;11.90;99.90
12015;DHT22;6066;48.138;16.402;2023-05-07T00:27:16;11.90;99.90
12015;DHT22;6066;48.138;16.402;2023-05-07T00:29:42;11.90;99.90
12015;DHT22;6066;48.138;16.402;2023-05-07T00:32:09;11.90;99.90
12015;DHT22;6066;48.138;16.402;2023-05-07T00:34:37;11.90;99.90
12015;DHT22;6066;48.138;16.402;2023-05-07T00:37:04;11.90;99.90
12015;DHT22;6066;48.138;16.402;2023-05-07T00:39:32;11.80;99.90
12015;DHT22;6066;48.138;16.402;2023-05-07T00:41:59;11.80;99.90
12015;DHT22;6066;48.138;16.402;2023-05-07T00:44:26;11.80;99.90
12015;DHT22;6066;48.138;16.402;2023-05-07T00:46:53;11.70;99.90
12015;DHT22;6066;48.138;16.402;2023-05-07T00:49:20;11.70;99.90
12015;DHT22;6066;48.138;16.402;2023-05-07T00:51:48;11.70;99.90
12015;DHT22;6066;48.138;16.402;2023-05-07T00:54:16;11.70;99.90
12015;DHT22;6066;48.138;16.402;2023-05-07T00:56:42;11.60;99.90
12015;DHT22;6066;48.138;16.402;2023-05-07T00:59:10;11.60;99.90
12015;DHT22;6066;48.138;16.402;2023-05-07T01:01:37;11.60;99.90
12015;DHT22;6066;48.138;16.402;2023-05-07T01:04:03;11.60;99.90
12015;DHT22;6066;48.138;16.402;2023-05-07T01:06:30;11.50;99.90
12015;DHT22;6066;48.138;16.402;2023-05-07T01:08:59;11.50;99.90
12015;DHT22;6066;48.138;16.402;2023-05-07T01:11:27;11.50;99.90
12015;DHT22;6066;48.138;16.402;2023-05-07T01:13:54;11.40;99.90
12015;DHT22;6066;48.138;16.402;2023-05-07T01:16:21;11.50;99.90
12015;DHT22;6066;48.138;16.402;2023-05-07T01:18:47;11.50;99.90
12015;DHT22;6066;48.138;16.402;2023-05-07T01:21:14;11.50;99.90
12015;DHT22;6066;48.138;16.402;2023-05-07T01:23:43;11.50;99.90
12015;DHT22;6066;48.138;16.402;2023-05-07T01:26:10;11.50;99.90
12015;DHT22;6066;48.138;16.402;2023-05-07T01:28:37;11.50;99.90
12015;DHT22;6066;48.138;16.402;2023-05-07T01:31:03;11.50;99.90
12015;DHT22;6066;48.138;16.402;2023-05-07T01:33:31;11.50;99.90
12015;DHT22;6066;48.138;16.402;2023-05-07T01:36:00;11.50;99.90
12015;DHT22;6066;48.138;16.402;2023-05-07T01:38:28;11.50;99.90
12015;DHT22;6066;48.138;16.402;2023-05-07T01:40:57;11.40;99.90
12015;DHT22;6066;48.138;16.402;2023-05-07T01:43:24;11.40;99.90
12015;DHT22;6066;48.138;16.402;2023-05-07T01:45:51;11.40;99.90
12015;DHT22;6066;48.138;16.402;2023-05-07T01:48:19;11.40;99.90
12015;DHT22;6066;48.138;16.402;2023-05-07T01:50:45;11.40;99.90
12015;DHT22;6066;48.138;16.402;2023-05-07T01:53:12;11.40;99.90
12015;DHT22;6066;48.138;16.402;2023-05-07T01:55:39;11.30;99.90
12015;DHT22;6066;48.138;16.402;2023-05-07T01:58:07;11.30;99.90
12015;DHT22;6066;48.138;16.402;2023-05-07T02:00:34;11.30;99.90
12015;DHT22;6066;48.138;16.402;2023-05-07T02:03:00;11.30;99.90
12015;DHT22;6066;48.138;16.402;2023-05-07T02:05:27;11.20;99.90
12015;DHT22;6066;48.138;16.402;2023-05-07T02:07:54;11.30;99.90
12015;DHT22;6066;48.138;16.402;2023-05-07T02:10:21;11.20;99.90
12015;DHT22;6066;48.138;16.402;2023-05-07T02:12:47;11.20;99.90
12015;DHT22;6066;48.138;16.402;2023-05-07T02:15:15;11.20;99.90
12015;DHT22;6066;48.138;16.402;2023-05-07T02:17:57;11.10;99.90
12015;DHT22;6066;48.138;16.402;2023-05-07T02:20:25;11.10;99.90
12015;DHT22;6066;48.138;16.402;2023-05-07T02:22:51;11.10;99.90
12015;DHT22;6066;48.138;16.402;2023-05-07T02:25:18;11.00;99.90
12015;DHT22;6066;48.138;16.402;2023-05-07T02:27:45;11.00;99.90
12015;DHT22;6066;48.138;16.402;2023-05-07T02:30:12;11.00;99.90
12015;DHT22;6066;48.138;16.402;2023-05-07T02:32:40;11.00;99.90
12015;DHT22;6066;48.138;16.402;2023-05-07T02:35:07;11.00;99.90
12015;DHT22;6066;48.138;16.402;2023-05-07T02:37:33;11.10;99.90
12015;DHT22;6066;48.138;16.402;2023-05-07T02:40:00;11.10;99.90
12015;DHT22;6066;48.138;16.402;2023-05-07T02:42:29;11.10;99.90
12015;DHT22;6066;48.138;16.402;2023-05-07T02:44:56;11.10;99.90
12015;DHT22;6066;48.138;16.402;2023-05-07T02:47:23;11.10;99.90
12015;DHT22;6066;48.138;16.402;2023-05-07T02:49:53;11.10;99.90
12015;DHT22;6066;48.138;16.402;2023-05-07T02:52:20;11.10;99.90
12015;DHT22;6066;48.138;16.402;2023-05-07T02:54:47;11.10;99.90
12015;DHT22;6066;48.138;16.402;2023-05-07T02:57:14;11.10;99.90
12015;DHT22;6066;48.138;16.402;2023-05-07T02:59:41;11.10;99.90
12015;DHT22;6066;48.138;16.402;2023-05-07T03:02:08;11.00;99.90
12015;DHT22;6066;48.138;16.402;2023-05-07T03:04:35;11.00;99.90
12015;DHT22;6066;48.138;16.402;2023-05-07T03:07:03;11.00;99.90
12015;DHT22;6066;48.138;16.402;2023-05-07T03:09:29;11.00;99.90
12015;DHT22;6066;48.138;16.402;2023-05-07T03:11:56;11.00;99.90
12015;DHT22;6066;48.138;16.402;2023-05-07T03:14:23;11.10;99.90
12015;DHT22;6066;48.138;16.402;2023-05-07T03:16:50;11.10;99.90
12015;DHT22;6066;48.138;16.402;2023-05-07T03:19:16;11.20;99.90
12015;DHT22;6066;48.138;16.402;2023-05-07T03:21:43;11.20;99.90
12015;DHT22;6066;48.138;16.402;2023-05-07T03:24:11;11.20;99.90
12015;DHT22;6066;48.138;16.402;2023-05-07T03:26:38;11.30;99.90
12015;DHT22;6066;48.138;16.402;2023-05-07T03:29:05;11.30;99.90
12015;DHT22;6066;48.138;16.402;2023-05-07T03:31:31;11.30;99.90
12015;DHT22;6066;48.138;16.402;2023-05-07T03:33:58;11.30;99.90
12015;DHT22;6066;48.138;16.402;2023-05-07T03:36:25;11.30;99.90
12015;DHT22;6066;48.138;16.402;2023-05-07T03:38:52;11.30;99.90
12015;DHT22;6066;48.138;16.402;2023-05-07T03:41:20;11.40;99.90
12015;DHT22;6066;48.138;16.402;2023-05-07T03:43:46;11.30;99.90
12015;DHT22;6066;48.138;16.402;2023-05-07T03:46:13;11.30;99.90
12015;DHT22;6066;48.138;16.402;2023-05-07T03:48:40;11.30;99.90
12015;DHT22;6066;48.138;16.402;2023-05-07T03:51:06;11.40;99.90
12015;DHT22;6066;48.138;16.402;2023-05-07T03:53:33;11.40;99.90
12015;DHT22;6066;48.138;16.402;2023-05-07T03:56:00;11.40;99.90
12015;DHT22;6066;48.138;16.402;2023-05-07T03:58:28;11.50;99.90
12015;DHT22;6066;48.138;16.402;2023-05-07T04:00:54;11.50;99.90
12015;DHT22;6066;48.138;16.402;2023-05-07T04:03:21;11.50;99.90
12015;DHT22;6066;48.138;16.402;2023-05-07T04:05:48;11.50;99.90
12015;DHT22;6066;48.138;16.402;2023-05-07T04:08:14;11.60;99.90
12015;DHT22;6066;48.138;16.402;2023-05-07T04:10:41;11.60;99.90
12015;DHT22;6066;48.138;16.402;2023-05-07T04:13:08;11.60;99.90
12015;DHT22;6066;48.138;16.402;2023-05-07T04:15:36;11.60;99.90
12015;DHT22;6066;48.138;16.402;2023-05-07T04:18:03;11.70;99.90
12015;DHT22;6066;48.138;16.402;2023-05-07T04:20:29;11.80;99.90
12015;DHT22;6066;48.138;16.402;2023-05-07T04:22:56;11.80;99.90
12015;DHT22;6066;48.138;16.402;2023-05-07T04:25:23;11.90;99.90
12015;DHT22;6066;48.138;16.402;2023-05-07T04:27:51;11.90;99.90
12015;DHT22;6066;48.138;16.402;2023-05-07T04:30:18;11.90;99.90
12015;DHT22;6066;48.138;16.402;2023-05-07T04:32:46;12.00;99.90
12015;DHT22;6066;48.138;16.402;2023-05-07T04:35:13;12.00;99.90
12015;DHT22;6066;48.138;16.402;2023-05-07T04:37:40;12.10;99.90
12015;DHT22;6066;48.138;16.402;2023-05-07T04:40:07;12.20;99.90
12015;DHT22;6066;48.138;16.402;2023-05-07T04:42:34;12.20;99.90
12015;DHT22;6066;48.138;16.402;2023-05-07T04:45:01;12.30;99.90
12015;DHT22;6066;48.138;16.402;2023-05-07T04:47:27;12.40;99.90
12015;DHT22;6066;48.138;16.402;2023-05-07T04:49:55;12.40;99.90
12015;DHT22;6066;48.138;16.402;2023-05-07T04:52:23;12.50;99.90
12015;DHT22;6066;48.138;16.402;2023-05-07T04:54:49;12.50;99.90
12015;DHT22;6066;48.138;16.402;2023-05-07T04:57:16;12.60;99.90
12015;DHT22;6066;48.138;16.402;2023-05-07T04:59:43;12.70;99.90
12015;DHT22;6066;48.138;16.402;2023-05-07T05:02:10;12.70;99.90
12015;DHT22;6066;48.138;16.402;2023-05-07T05:04:37;12.80;99.90
12015;DHT22;6066;48.138;16.402;2023-05-07T05:07:05;12.90;99.90
12015;DHT22;6066;48.138;16.402;2023-05-07T05:09:31;12.90;99.90
12015;DHT22;6066;48.138;16.402;2023-05-07T05:11:58;12.90;99.90
12015;DHT22;6066;48.138;16.402;2023-05-07T05:14:25;12.90;99.90
12015;DHT22;6066;48.138;16.402;2023-05-07T05:16:52;12.90;99.90
12015;DHT22;6066;48.138;16.402;2023-05-07T05:19:18;13.00;99.90
12015;DHT22;6066;48.138;16.402;2023-05-07T05:21:45;13.00;99.90
12015;DHT22;6066;48.138;16.402;2023-05-07T05:24:13;13.10;99.90
12015;DHT22;6066;48.138;16.402;2023-05-07T05:26:40;13.20;99.90
12015;DHT22;6066;48.138;16.402;2023-05-07T05:29:07;13.30;99.90
12015;DHT22;6066;48.138;16.402;2023-05-07T05:31:33;13.30;99.90
12015;DHT22;6066;48.138;16.402;2023-05-07T05:34:00;13.30;99.90
12015;DHT22;6066;48.138;16.402;2023-05-07T05:36:27;13.40;99.90
12015;DHT22;6066;48.138;16.402;2023-05-07T05:38:53;13.40;99.90
12015;DHT22;6066;48.138;16.402;2023-05-07T05:41:21;13.50;99.90
12015;DHT22;6066;48.138;16.402;2023-05-07T05:43:48;13.60;99.90
12015;DHT22;6066;48.138;16.402;2023-05-07T05:46:15;13.60;99.90
12015;DHT22;6066;48.138;16.402;2023-05-07T05:48:42;13.70;99.90
12015;DHT22;6066;48.138;16.402;2023-05-07T05:51:08;13.70;99.90
12015;DHT22;6066;48.138;16.402;2023-05-07T05:53:35;13.70;99.90
12015;DHT22;6066;48.138;16.402;2023-05-07T05:56:02;13.70;99.90
12015;DHT22;6066;48.138;16.402;2023-05-07T05:58:30;13.80;99.90
12015;DHT22;6066;48.138;16.402;2023-05-07T06:00:57;13.80;99.90
12015;DHT22;6066;48.138;16.402;2023-05-07T06:03:24;13.80;99.90
12015;DHT22;6066;48.138;16.402;2023-05-07T06:05:51;13.90;99.90
12015;DHT22;6066;48.138;16.402;2023-05-07T06:08:18;13.70;99.90
12015;DHT22;6066;48.138;16.402;2023-05-07T06:10:45;13.80;99.90
12015;DHT22;6066;48.138;16.402;2023-05-07T06:13:11;13.80;99.90
12015;DHT22;6066;48.138;16.402;2023-05-07T06:15:39;13.90;99.90
12015;DHT22;6066;48.138;16.402;2023-05-07T06:18:06;13.90;99.90
12015;DHT22;6066;48.138;16.402;2023-05-07T06:20:33;13.90;99.90
12015;DHT22;6066;48.138;16.402;2023-05-07T06:22:59;13.90;99.90
12015;DHT22;6066;48.138;16.402;2023-05-07T06:25:26;14.00;99.90
12015;DHT22;6066;48.138;16.402;2023-05-07T06:27:53;14.10;99.90
12015;DHT22;6066;48.138;16.402;2023-05-07T06:30:20;14.20;99.90
12015;DHT22;6066;48.138;16.402;2023-05-07T06:32:48;14.20;99.90
12015;DHT22;6066;48.138;16.402;2023-05-07T06:35:14;14.20;99.90
12015;DHT22;6066;48.138;16.402;2023-05-07T06:37:41;14.20;99.90
12015;DHT22;6066;48.138;16.402;2023-05-07T06:40:09;14.20;99.90
12015;DHT22;6066;48.138;16.402;2023-05-07T06:42:35;14.30;99.90
12015;DHT22;6066;48.138;16.402;2023-05-07T06:45:03;14.30;99.90
12015;DHT22;6066;48.138;16.402;2023-05-07T06:47:29;14.30;99.90
12015;DHT22;6066;48.138;16.402;2023-05-07T06:49:57;14.30;99.90
12015;DHT22;6066;48.138;16.402;2023-05-07T06:52:24;14.20;99.90
12015;DHT22;6066;48.138;16.402;2023-05-07T06:54:51;14.30;99.90
12015;DHT22;6066;48.138;16.402;2023-05-07T06:57:18;14.30;99.90
12015;DHT22;6066;48.138;16.402;2023-05-07T06:59:44;14.30;99.90
12015;DHT22;6066;48.138;16.402;2023-05-07T07:02:11;14.40;99.90
12015;DHT22;6066;48.138;16.402;2023-05-07T07:04:38;14.50;99.90
12015;DHT22;6066;48.138;16.402;2023-05-07T07:07:06;14.60;99.90
12015;DHT22;6066;48.138;16.402;2023-05-07T07:09:33;14.70;99.90
12015;DHT22;6066;48.138;16.402;2023-05-07T07:12:00;14.70;99.90
12015;DHT22;6066;48.138;16.402;2023-05-07T07:14:26;14.80;99.90
12015;DHT22;6066;48.138;16.402;2023-05-07T07:16:53;14.90;99.90
12015;DHT22;6066;48.138;16.402;2023-05-07T07:19:20;14.90;99.90
12015;DHT22;6066;48.138;16.402;2023-05-07T07:21:46;14.90;99.90
12015;DHT22;6066;48.138;16.402;2023-05-07T07:24:14;15.00;99.90
12015;DHT22;6066;48.138;16.402;2023-05-07T07:26:44;15.00;99.90
12015;DHT22;6066;48.138;16.402;2023-05-07T07:29:11;15.00;99.90
12015;DHT22;6066;48.138;16.402;2023-05-07T07:31:37;15.00;99.90
12015;DHT22;6066;48.138;16.402;2023-05-07T07:34:04;15.00;99.90
12015;DHT22;6066;48.138;16.402;2023-05-07T07:36:31;15.10;99.90
12015;DHT22;6066;48.138;16.402;2023-05-07T07:38:57;15.30;99.90
12015;DHT22;6066;48.138;16.402;2023-05-07T07:41:25;15.40;99.90
12015;DHT22;6066;48.138;16.402;2023-05-07T07:43:52;15.30;99.90
12015;DHT22;6066;48.138;16.402;2023-05-07T07:46:19;15.20;99.90
12015;DHT22;6066;48.138;16.402;2023-05-07T07:48:45;15.20;99.90
12015;DHT22;6066;48.138;16.402;2023-05-07T07:51:12;15.20;99.90
12015;DHT22;6066;48.138;16.402;2023-05-07T07:53:39;15.10;99.90
12015;DHT22;6066;48.138;16.402;2023-05-07T07:56:06;15.10;99.90
12015;DHT22;6066;48.138;16.402;2023-05-07T07:58:34;15.20;99.90
12015;DHT22;6066;48.138;16.402;2023-05-07T08:01:03;15.20;99.90
12015;DHT22;6066;48.138;16.402;2023-05-07T08:03:30;15.30;99.90
12015;DHT22;6066;48.138;16.402;2023-05-07T08:05:57;15.30;99.90
12015;DHT22;6066;48.138;16.402;2023-05-07T08:08:24;15.30;99.90
12015;DHT22;6066;48.138;16.402;2023-05-07T08:10:51;15.40;99.90
12015;DHT22;6066;48.138;16.402;2023-05-07T08:13:17;15.40;99.90
12015;DHT22;6066;48.138;16.402;2023-05-07T08:15:45;15.50;99.90
12015;DHT22;6066;48.138;16.402;2023-05-07T08:18:12;15.40;99.90
12015;DHT22;6066;48.138;16.402;2023-05-07T08:20:39;15.20;99.90
12015;DHT22;6066;48.138;16.402;2023-05-07T08:23:06;15.10;99.90
12015;DHT22;6066;48.138;16.402;2023-05-07T08:25:33;15.10;99.90
12015;DHT22;6066;48.138;16.402;2023-05-07T08:28:00;15.20;99.90
12015;DHT22;6066;48.138;16.402;2023-05-07T08:30:28;15.30;99.90
12015;DHT22;6066;48.138;16.402;2023-05-07T08:32:56;15.40;99.90
12015;DHT22;6066;48.138;16.402;2023-05-07T08:35:23;15.50;99.90
12015;DHT22;6066;48.138;16.402;2023-05-07T08:37:50;15.60;99.90
12015;DHT22;6066;48.138;16.402;2023-05-07T08:40:17;15.70;99.90
12015;DHT22;6066;48.138;16.402;2023-05-07T08:42:44;15.70;99.90
12015;DHT22;6066;48.138;16.402;2023-05-07T08:45:12;15.70;99.90
12015;DHT22;6066;48.138;16.402;2023-05-07T08:47:40;15.80;99.90
12015;DHT22;6066;48.138;16.402;2023-05-07T08:50:09;15.80;99.90
12015;DHT22;6066;48.138;16.402;2023-05-07T08:52:35;15.90;99.90
12015;DHT22;6066;48.138;16.402;2023-05-07T08:55:02;15.90;99.90
12015;DHT22;6066;48.138;16.402;2023-05-07T08:57:29;15.90;99.90
12015;DHT22;6066;48.138;16.402;2023-05-07T08:59:56;16.00;99.90
12015;DHT22;6066;48.138;16.402;2023-05-07T09:02:23;16.10;99.90
12015;DHT22;6066;48.138;16.402;2023-05-07T09:04:49;16.20;99.90
12015;DHT22;6066;48.138;16.402;2023-05-07T09:07:17;16.10;99.90
12015;DHT22;6066;48.138;16.402;2023-05-07T09:09:45;16.30;99.90
12015;DHT22;6066;48.138;16.402;2023-05-07T09:12:12;16.50;99.90
12015;DHT22;6066;48.138;16.402;2023-05-07T09:14:39;16.80;99.90
12015;DHT22;6066;48.138;16.402;2023-05-07T09:17:06;16.90;99.90
12015;DHT22;6066;48.138;16.402;2023-05-07T09:19:32;17.00;99.90
12015;DHT22;6066;48.138;16.402;2023-05-07T09:21:59;17.10;99.90
12015;DHT22;6066;48.138;16.402;2023-05-07T09:24:27;17.00;99.90
12015;DHT22;6066;48.138;16.402;2023-05-07T09:26:59;17.10;99.90
12015;DHT22;6066;48.138;16.402;2023-05-07T09:29:26;17.10;99.90
12015;DHT22;6066;48.138;16.402;2023-05-07T09:31:54;17.10;99.90
12015;DHT22;6066;48.138;16.402;2023-05-07T09:34:20;17.10;99.90
12015;DHT22;6066;48.138;16.402;2023-05-07T09:36:48;17.30;99.90
12015;DHT22;6066;48.138;16.402;2023-05-07T09:39:15;17.10;99.90
12015;DHT22;6066;48.138;16.402;2023-05-07T09:41:44;17.10;99.90
12015;DHT22;6066;48.138;16.402;2023-05-07T09:44:14;17.20;99.90
12015;DHT22;6066;48.138;16.402;2023-05-07T09:46:42;17.20;99.90
12015;DHT22;6066;48.138;16.402;2023-05-07T09:49:10;17.40;99.90
12015;DHT22;6066;48.138;16.402;2023-05-07T09:51:39;17.20;99.90
12015;DHT22;6066;48.138;16.402;2023-05-07T09:54:07;17.40;99.90
12015;DHT22;6066;48.138;16.402;2023-05-07T09:56:34;17.20;99.90
12015;DHT22;6066;48.138;16.402;2023-05-07T09:59:04;17.50;99.90
12015;DHT22;6066;48.138;16.402;2023-05-07T10:01:31;17.50;99.90
12015;DHT22;6066;48.138;16.402;2023-05-07T10:03:59;17.60;99.90
12015;DHT22;6066;48.138;16.402;2023-05-07T10:06:26;17.80;99.90
12015;DHT22;6066;48.138;16.402;2023-05-07T10:08:52;17.70;99.90
12015;DHT22;6066;48.138;16.402;2023-05-07T10:11:21;18.00;99.90
12015;DHT22;6066;48.138;16.402;2023-05-07T10:13:48;17.90;99.90
12015;DHT22;6066;48.138;16.402;2023-05-07T10:16:16;17.80;99.90
12015;DHT22;6066;48.138;16.402;2023-05-07T10:18:43;17.80;99.90
12015;DHT22;6066;48.138;16.402;2023-05-07T10:21:11;17.80;99.90
12015;DHT22;6066;48.138;16.402;2023-05-07T10:23:38;17.70;99.90
12015;DHT22;6066;48.138;16.402;2023-05-07T10:26:06;17.60;99.90
12015;DHT22;6066;48.138;16.402;2023-05-07T10:28:36;17.80;99.90
12015;DHT22;6066;48.138;16.402;2023-05-07T10:31:23;17.80;99.90
12015;DHT22;6066;48.138;16.402;2023-05-07T10:33:53;17.90;99.90
12015;DHT22;6066;48.138;16.402;2023-05-07T10:36:20;18.00;99.90
12015;DHT22;6066;48.138;16.402;2023-05-07T10:38:48;18.00;99.90
12015;DHT22;6066;48.138;16.402;2023-05-07T10:41:17;18.20;99.90
12015;DHT22;6066;48.138;16.402;2023-05-07T10:43:44;18.30;99.90
12015;DHT22;6066;48.138;16.402;2023-05-07T10:46:14;18.40;99.90
12015;DHT22;6066;48.138;16.402;2023-05-07T10:51:28;18.40;99.90
12015;DHT22;6066;48.138;16.402;2023-05-07T10:56:37;18.40;99.90
12015;DHT22;6066;48.138;16.402;2023-05-07T11:01:50;18.30;99.90
12015;DHT22;6066;48.138;16.402;2023-05-07T11:04:17;18.30;99.90
12015;DHT22;6066;48.138;16.402;2023-05-07T11:12:48;18.40;99.90
12015;DHT22;6066;48.138;16.402;2023-05-07T11:15:14;18.30;99.90
12015;DHT22;6066;48.138;16.402;2023-05-07T11:17:54;18.40;99.90
12015;DHT22;6066;48.138;16.402;2023-05-07T11:20:22;18.50;99.90
12015;DHT22;6066;48.138;16.402;2023-05-07T11:23:12;18.70;99.90
12015;DHT22;6066;48.138;16.402;2023-05-07T11:25:58;18.50;99.90
12015;DHT22;6066;48.138;16.402;2023-05-07T11:28:26;18.50;99.90
12015;DHT22;6066;48.138;16.402;2023-05-07T11:30:53;18.60;99.90
12015;DHT22;6066;48.138;16.402;2023-05-07T11:33:20;18.90;99.90
12015;DHT22;6066;48.138;16.402;2023-05-07T11:35:47;19.20;99.90
12015;DHT22;6066;48.138;16.402;2023-05-07T11:38:15;19.40;99.90
12015;DHT22;6066;48.138;16.402;2023-05-07T11:40:49;19.60;99.90
12015;DHT22;6066;48.138;16.402;2023-05-07T11:43:18;19.80;99.90
12015;DHT22;6066;48.138;16.402;2023-05-07T11:45:44;19.90;99.90
12015;DHT22;6066;48.138;16.402;2023-05-07T11:48:12;20.00;99.90
12015;DHT22;6066;48.138;16.402;2023-05-07T11:50:49;19.90;99.90
12015;DHT22;6066;48.138;16.402;2023-05-07T11:53:17;20.00;99.90
12015;DHT22;6066;48.138;16.402;2023-05-07T11:55:46;20.10;99.90
12015;DHT22;6066;48.138;16.402;2023-05-07T11:58:13;20.00;99.90
12015;DHT22;6066;48.138;16.402;2023-05-07T12:00:48;20.00;99.90
12015;DHT22;6066;48.138;16.402;2023-05-07T12:03:14;20.20;99.90
12015;DHT22;6066;48.138;16.402;2023-05-07T12:05:41;20.50;99.90
12015;DHT22;6066;48.138;16.402;2023-05-07T12:08:08;20.70;99.90
12015;DHT22;6066;48.138;16.402;2023-05-07T12:10:36;20.80;99.90
12015;DHT22;6066;48.138;16.402;2023-05-07T12:13:13;20.70;99.90
12015;DHT22;6066;48.138;16.402;2023-05-07T12:15:40;20.50;99.90
12015;DHT22;6066;48.138;16.402;2023-05-07T12:18:06;20.30;99.90
12015;DHT22;6066;48.138;16.402;2023-05-07T12:20:33;20.10;99.90
12015;DHT22;6066;48.138;16.402;2023-05-07T12:23:01;19.80;99.90
12015;DHT22;6066;48.138;16.402;2023-05-07T12:25:29;19.60;99.90
12015;DHT22;6066;48.138;16.402;2023-05-07T12:27:57;19.40;99.90
12015;DHT22;6066;48.138;16.402;2023-05-07T12:30:26;19.40;99.90
12015;DHT22;6066;48.138;16.402;2023-05-07T12:32:53;19.50;99.90
12015;DHT22;6066;48.138;16.402;2023-05-07T12:35:26;19.50;99.90
12015;DHT22;6066;48.138;16.402;2023-05-07T12:37:54;19.60;99.90
12015;DHT22;6066;48.138;16.402;2023-05-07T12:40:21;19.70;99.90
12015;DHT22;6066;48.138;16.402;2023-05-07T12:42:48;19.80;99.90
12015;DHT22;6066;48.138;16.402;2023-05-07T12:45:20;19.80;99.90
12015;DHT22;6066;48.138;16.402;2023-05-07T12:47:47;19.80;99.90
12015;DHT22;6066;48.138;16.402;2023-05-07T12:50:14;19.60;99.90
12015;DHT22;6066;48.138;16.402;2023-05-07T12:52:40;19.50;99.90
12015;DHT22;6066;48.138;16.402;2023-05-07T12:55:07;19.50;99.90
12015;DHT22;6066;48.138;16.402;2023-05-07T12:57:37;19.50;99.90
12015;DHT22;6066;48.138;16.402;2023-05-07T13:00:05;19.30;99.90
12015;DHT22;6066;48.138;16.402;2023-05-07T13:02:33;19.30;99.90
12015;DHT22;6066;48.138;16.402;2023-05-07T13:05:01;19.30;99.90
12015;DHT22;6066;48.138;16.402;2023-05-07T13:07:27;19.30;99.90
12015;DHT22;6066;48.138;16.402;2023-05-07T13:09:55;19.40;99.90
12015;DHT22;6066;48.138;16.402;2023-05-07T13:12:24;19.70;99.90
12015;DHT22;6066;48.138;16.402;2023-05-07T13:14:53;20.10;99.90
12015;DHT22;6066;48.138;16.402;2023-05-07T13:17:22;20.20;99.90
12015;DHT22;6066;48.138;16.402;2023-05-07T13:19:53;20.00;99.90
12015;DHT22;6066;48.138;16.402;2023-05-07T13:22:22;19.80;99.90
12015;DHT22;6066;48.138;16.402;2023-05-07T13:24:51;19.70;99.90
12015;DHT22;6066;48.138;16.402;2023-05-07T13:27:21;19.50;99.90
12015;DHT22;6066;48.138;16.402;2023-05-07T13:29:49;19.50;99.90
12015;DHT22;6066;48.138;16.402;2023-05-07T13:32:17;19.30;99.90
12015;DHT22;6066;48.138;16.402;2023-05-07T13:34:48;19.20;99.90
12015;DHT22;6066;48.138;16.402;2023-05-07T13:37:19;19.10;99.90
12015;DHT22;6066;48.138;16.402;2023-05-07T13:39:47;19.10;99.90
12015;DHT22;6066;48.138;16.402;2023-05-07T13:42:15;19.10;99.90
12015;DHT22;6066;48.138;16.402;2023-05-07T13:44:43;19.20;99.90
12015;DHT22;6066;48.138;16.402;2023-05-07T13:47:11;19.20;99.90
12015;DHT22;6066;48.138;16.402;2023-05-07T13:49:40;19.20;99.90
12015;DHT22;6066;48.138;16.402;2023-05-07T13:52:08;19.20;99.90
12015;DHT22;6066;48.138;16.402;2023-05-07T13:54:39;19.20;99.90
12015;DHT22;6066;48.138;16.402;2023-05-07T13:57:07;19.30;99.90
12015;DHT22;6066;48.138;16.402;2023-05-07T13:59:36;19.40;99.90
12015;DHT22;6066;48.138;16.402;2023-05-07T14:02:05;19.50;99.90
12015;DHT22;6066;48.138;16.402;2023-05-07T14:04:35;19.60;99.90
12015;DHT22;6066;48.138;16.402;2023-05-07T14:07:04;19.70;99.90
12015;DHT22;6066;48.138;16.402;2023-05-07T14:09:34;19.70;99.90
12015;DHT22;6066;48.138;16.402;2023-05-07T14:12:05;19.60;99.90
12015;DHT22;6066;48.138;16.402;2023-05-07T14:14:34;19.50;99.90
12015;DHT22;6066;48.138;16.402;2023-05-07T14:17:04;19.40;99.90
12015;DHT22;6066;48.138;16.402;2023-05-07T14:19:34;19.30;99.90
12015;DHT22;6066;48.138;16.402;2023-05-07T14:22:03;19.20;99.90
12015;DHT22;6066;48.138;16.402;2023-05-07T14:24:33;19.10;99.90
12015;DHT22;6066;48.138;16.402;2023-05-07T14:27:01;19.00;99.90
12015;DHT22;6066;48.138;16.402;2023-05-07T14:29:31;18.90;99.90
12015;DHT22;6066;48.138;16.402;2023-05-07T14:32:01;18.80;99.90
12015;DHT22;6066;48.138;16.402;2023-05-07T14:34:30;18.60;99.90
12015;DHT22;6066;48.138;16.402;2023-05-07T14:37:00;18.50;99.90
12015;DHT22;6066;48.138;16.402;2023-05-07T14:39:32;18.40;99.90
12015;DHT22;6066;48.138;16.402;2023-05-07T14:42:01;18.20;99.90
12015;DHT22;6066;48.138;16.402;2023-05-07T14:44:33;18.10;99.90
12015;DHT22;6066;48.138;16.402;2023-05-07T14:47:03;18.00;99.90
12015;DHT22;6066;48.138;16.402;2023-05-07T14:49:32;17.90;99.90
12015;DHT22;6066;48.138;16.402;2023-05-07T14:52:01;17.90;99.90
12015;DHT22;6066;48.138;16.402;2023-05-07T14:54:30;17.90;99.90
12015;DHT22;6066;48.138;16.402;2023-05-07T14:56:59;17.80;99.90
12015;DHT22;6066;48.138;16.402;2023-05-07T14:59:28;17.80;99.90
12015;DHT22;6066;48.138;16.402;2023-05-07T15:02:00;17.80;99.90
12015;DHT22;6066;48.138;16.402;2023-05-07T15:04:29;17.80;99.90
12015;DHT22;6066;48.138;16.402;2023-05-07T15:06:58;17.80;99.90
12015;DHT22;6066;48.138;16.402;2023-05-07T15:09:27;17.80;99.90
12015;DHT22;6066;48.138;16.402;2023-05-07T15:11:56;17.80;99.90
12015;DHT22;6066;48.138;16.402;2023-05-07T15:14:26;17.90;99.90
12015;DHT22;6066;48.138;16.402;2023-05-07T15:16:55;17.90;99.90
12015;DHT22;6066;48.138;16.402;2023-05-07T15:19:26;17.80;99.90
12015;DHT22;6066;48.138;16.402;2023-05-07T15:21:56;17.80;99.90
12015;DHT22;6066;48.138;16.402;2023-05-07T15:24:28;17.70;99.90
12015;DHT22;6066;48.138;16.402;2023-05-07T15:26:59;17.70;99.90
12015;DHT22;6066;48.138;16.402;2023-05-07T15:29:29;17.70;99.90
12015;DHT22;6066;48.138;16.402;2023-05-07T15:31:58;17.70;99.90
12015;DHT22;6066;48.138;16.402;2023-05-07T15:34:28;17.70;99.90
12015;DHT22;6066;48.138;16.402;2023-05-07T15:36:58;17.70;99.90
12015;DHT22;6066;48.138;16.402;2023-05-07T15:39:26;17.70;99.90
12015;DHT22;6066;48.138;16.402;2023-05-07T15:41:55;17.70;99.90
12015;DHT22;6066;48.138;16.402;2023-05-07T15:44:24;17.70;99.90
12015;DHT22;6066;48.138;16.402;2023-05-07T15:46:54;17.70;99.90